sensor_id;sensor_type;location;lat;lon;timestamp;temperature;humidity
4602;DHT22;2313;48.552;9.370;2022-12-24T00:00:05;11.00;99.90
4602;DHT22;2313;48.552;9.370;2022-12-24T00:02:31;11.00;99.90
4602;DHT22;2313;48.552;9.370;2022-12-24T00:04:56;11.00;99.90
4602;DHT22;2313;48.552;9.370;2022-12-24T00:07:22;10.90;99.90
4602;DHT22;2313;48.552;9.370;2022-12-24T00:09:48;11.00;99.90
4602;DHT22;2313;48.552;9.370;2022-12-24T00:12:13;10.90;99.90
4602;DHT22;2313;48.552;9.370;2022-12-24T00:14:39;11.00;99.90
4602;DHT22;2313;48.552;9.370;2022-12-24T00:17:04;10.90;99.90
4602;DHT22;2313;48.552;9.370;2022-12-24T00:19:30;10.90;99.90
4602;DHT22;2313;48.552;9.370;2022-12-24T00:21:55;10.90;99.90
4602;DHT22;2313;48.552;9.370;2022-12-24T00:24:21;11.00;99.90
4602;DHT22;2313;48.552;9.370;2022-12-24T00:26:47;11.00;99.90
4602;DHT22;2313;48.552;9.370;2022-12-24T00:29:12;11.00;99.90
4602;DHT22;2313;48.552;9.370;2022-12-24T00:31:38;11.20;99.90
4602;DHT22;2313;48.552;9.370;2022-12-24T00:34:03;11.10;99.90
4602;DHT22;2313;48.552;9.370;2022-12-24T00:36:29;11.10;99.90
4602;DHT22;2313;48.552;9.370;2022-12-24T00:38:54;11.00;99.90
4602;DHT22;2313;48.552;9.370;2022-12-24T00:41:20;11.10;99.90
4602;DHT22;2313;48.552;9.370;2022-12-24T00:46:18;11.10;99.90
4602;DHT22;2313;48.552;9.370;2022-12-24T00:48:43;11.00;99.90
4602;DHT22;2313;48.552;9.370;2022-12-24T00:51:09;11.10;99.90
4602;DHT22;2313;48.552;9.370;2022-12-24T00:53:35;11.20;99.90
4602;DHT22;2313;48.552;9.370;2022-12-24T00:56:00;11.00;99.90
4602;DHT22;2313;48.552;9.370;2022-12-24T00:58:26;11.10;99.90
4602;DHT22;2313;48.552;9.370;2022-12-24T01:00:51;10.90;99.90
4602;DHT22;2313;48.552;9.370;2022-12-24T01:03:17;10.90;99.90
4602;DHT22;2313;48.552;9.370;2022-12-24T01:05:43;11.20;99.90
4602;DHT22;2313;48.552;9.370;2022-12-24T01:08:08;11.10;99.90
4602;DHT22;2313;48.552;9.370;2022-12-24T01:10:34;11.20;99.90
4602;DHT22;2313;48.552;9.370;2022-12-24T01:13:01;11.10;99.90
4602;DHT22;2313;48.552;9.370;2022-12-24T01:15:27;11.10;99.90
4602;DHT22;2313;48.552;9.370;2022-12-24T01:17:53;11.30;99.90
4602;DHT22;2313;48.552;9.370;2022-12-24T01:20:19;11.10;99.90
4602;DHT22;2313;48.552;9.370;2022-12-24T01:22:45;11.10;99.90
4602;DHT22;2313;48.552;9.370;2022-12-24T01:25:11;11.10;99.90
4602;DHT22;2313;48.552;9.370;2022-12-24T01:27:37;11.00;99.90
4602;DHT22;2313;48.552;9.370;2022-12-24T01:30:05;11.00;99.90
4602;DHT22;2313;48.552;9.370;2022-12-24T01:32:31;11.00;99.90
4602;DHT22;2313;48.552;9.370;2022-12-24T01:34:57;11.00;99.90
4602;DHT22;2313;48.552;9.370;2022-12-24T01:37:25;11.10;99.90
4602;DHT22;2313;48.552;9.370;2022-12-24T01:39:51;11.00;99.90
4602;DHT22;2313;48.552;9.370;2022-12-24T01:42:37;11.10;99.90
4602;DHT22;2313;48.552;9.370;2022-12-24T01:45:39;11.10;99.90
4602;DHT22;2313;48.552;9.370;2022-12-24T01:48:21;11.10;99.90
4602;DHT22;2313;48.552;9.370;2022-12-24T01:50:49;11.20;99.90
4602;DHT22;2313;48.552;9.370;2022-12-24T01:53:16;11.10;99.90
4602;DHT22;2313;48.552;9.370;2022-12-24T01:55:43;11.20;99.90
4602;DHT22;2313;48.552;9.370;2022-12-24T01:58:10;11.10;99.90
4602;DHT22;2313;48.552;9.370;2022-12-24T02:00:37;11.30;99.90
4602;DHT22;2313;48.552;9.370;2022-12-24T02:03:03;11.30;99.90
4602;DHT22;2313;48.552;9.370;2022-12-24T02:05:51;11.10;99.90
4602;DHT22;2313;48.552;9.370;2022-12-24T02:08:18;11.20;99.90
4602;DHT22;2313;48.552;9.370;2022-12-24T02:10:47;11.20;99.90
4602;DHT22;2313;48.552;9.370;2022-12-24T02:13:16;11.30;99.90
4602;DHT22;2313;48.552;9.370;2022-12-24T02:18:42;11.10;99.90
4602;DHT22;2313;48.552;9.370;2022-12-24T02:24:48;11.00;99.90
4602;DHT22;2313;48.552;9.370;2022-12-24T02:38:13;11.00;99.90
4602;DHT22;2313;48.552;9.370;2022-12-24T02:40:46;10.90;99.90
4602;DHT22;2313;48.552;9.370;2022-12-24T02:43:21;11.00;99.90
4602;DHT22;2313;48.552;9.370;2022-12-24T02:45:54;10.90;99.90
4602;DHT22;2313;48.552;9.370;2022-12-24T02:48:21;10.90;99.90
4602;DHT22;2313;48.552;9.370;2022-12-24T02:50:57;11.10;99.90
4602;DHT22;2313;48.552;9.370;2022-12-24T02:53:23;10.90;99.90
4602;DHT22;2313;48.552;9.370;2022-12-24T03:11:02;10.90;99.90
4602;DHT22;2313;48.552;9.370;2022-12-24T03:13:28;10.90;99.90
4602;DHT22;2313;48.552;9.370;2022-12-24T03:15:54;10.90;99.90
4602;DHT22;2313;48.552;9.370;2022-12-24T03:18:23;10.90;99.90
4602;DHT22;2313;48.552;9.370;2022-12-24T03:20:57;10.90;99.90
4602;DHT22;2313;48.552;9.370;2022-12-24T03:23:25;10.90;99.90
4602;DHT22;2313;48.552;9.370;2022-12-24T03:25:50;10.80;99.90
4602;DHT22;2313;48.552;9.370;2022-12-24T03:28:18;10.90;99.90
4602;DHT22;2313;48.552;9.370;2022-12-24T03:30:46;10.90;99.90
4602;DHT22;2313;48.552;9.370;2022-12-24T03:33:13;11.00;99.90
4602;DHT22;2313;48.552;9.370;2022-12-24T03:35:39;10.80;99.90
4602;DHT22;2313;48.552;9.370;2022-12-24T03:38:05;10.80;99.90
4602;DHT22;2313;48.552;9.370;2022-12-24T03:40:30;10.80;99.90
4602;DHT22;2313;48.552;9.370;2022-12-24T03:42:56;10.70;99.90
4602;DHT22;2313;48.552;9.370;2022-12-24T03:45:21;10.80;99.90
4602;DHT22;2313;48.552;9.370;2022-12-24T03:47:47;10.90;99.90
4602;DHT22;2313;48.552;9.370;2022-12-24T03:50:13;10.70;99.90
4602;DHT22;2313;48.552;9.370;2022-12-24T03:52:38;10.70;99.90
4602;DHT22;2313;48.552;9.370;2022-12-24T03:55:04;10.70;99.90
4602;DHT22;2313;48.552;9.370;2022-12-24T03:57:30;10.70;99.90
4602;DHT22;2313;48.552;9.370;2022-12-24T03:59:55;10.70;99.90
4602;DHT22;2313;48.552;9.370;2022-12-24T04:02:21;10.70;99.90
4602;DHT22;2313;48.552;9.370;2022-12-24T04:04:50;10.70;99.90
4602;DHT22;2313;48.552;9.370;2022-12-24T04:07:15;10.90;99.90
4602;DHT22;2313;48.552;9.370;2022-12-24T04:09:41;10.60;99.90
4602;DHT22;2313;48.552;9.370;2022-12-24T04:12:07;10.80;99.90
4602;DHT22;2313;48.552;9.370;2022-12-24T04:14:32;10.80;99.90
4602;DHT22;2313;48.552;9.370;2022-12-24T04:16:58;10.80;99.90
4602;DHT22;2313;48.552;9.370;2022-12-24T04:19:24;11.00;99.90
4602;DHT22;2313;48.552;9.370;2022-12-24T04:21:49;10.80;99.90
4602;DHT22;2313;48.552;9.370;2022-12-24T04:24:15;10.80;99.90
4602;DHT22;2313;48.552;9.370;2022-12-24T04:26:41;10.80;99.90
4602;DHT22;2313;48.552;9.370;2022-12-24T04:29:06;10.80;99.90
4602;DHT22;2313;48.552;9.370;2022-12-24T04:31:32;10.80;99.90
4602;DHT22;2313;48.552;9.370;2022-12-24T04:33:57;11.00;99.90
4602;DHT22;2313;48.552;9.370;2022-12-24T04:36:23;10.80;99.90
4602;DHT22;2313;48.552;9.370;2022-12-24T04:38:49;10.80;99.90
4602;DHT22;2313;48.552;9.370;2022-12-24T04:41:17;10.90;99.90
4602;DHT22;2313;48.552;9.370;2022-12-24T04:43:44;10.80;99.90
4602;DHT22;2313;48.552;9.370;2022-12-24T04:46:12;10.70;99.90
4602;DHT22;2313;48.552;9.370;2022-12-24T04:48:43;10.80;99.90
4602;DHT22;2313;48.552;9.370;2022-12-24T04:51:09;10.70;99.90
4602;DHT22;2313;48.552;9.370;2022-12-24T04:53:35;10.70;99.90
4602;DHT22;2313;48.552;9.370;2022-12-24T04:56:01;10.60;99.90
4602;DHT22;2313;48.552;9.370;2022-12-24T04:58:27;10.80;99.90
4602;DHT22;2313;48.552;9.370;2022-12-24T05:00:53;10.60;99.90
4602;DHT22;2313;48.552;9.370;2022-12-24T05:03:19;10.70;99.90
4602;DHT22;2313;48.552;9.370;2022-12-24T05:05:45;10.70;99.90
4602;DHT22;2313;48.552;9.370;2022-12-24T05:08:12;10.60;99.90
4602;DHT22;2313;48.552;9.370;2022-12-24T05:10:38;10.60;99.90
4602;DHT22;2313;48.552;9.370;2022-12-24T05:13:04;10.60;99.90
4602;DHT22;2313;48.552;9.370;2022-12-24T05:15:29;10.60;99.90
4602;DHT22;2313;48.552;9.370;2022-12-24T05:17:55;10.60;99.90
4602;DHT22;2313;48.552;9.370;2022-12-24T05:20:22;10.70;99.90
4602;DHT22;2313;48.552;9.370;2022-12-24T05:22:48;10.50;99.90
4602;DHT22;2313;48.552;9.370;2022-12-24T05:25:35;10.80;99.90
4602;DHT22;2313;48.552;9.370;2022-12-24T05:28:20;10.70;99.90
4602;DHT22;2313;48.552;9.370;2022-12-24T05:30:46;10.80;99.90
4602;DHT22;2313;48.552;9.370;2022-12-24T05:33:11;10.80;99.90
4602;DHT22;2313;48.552;9.370;2022-12-24T05:35:37;10.70;99.90
4602;DHT22;2313;48.552;9.370;2022-12-24T05:38:03;10.80;99.90
4602;DHT22;2313;48.552;9.370;2022-12-24T05:40:28;10.80;99.90
4602;DHT22;2313;48.552;9.370;2022-12-24T05:42:54;10.70;99.90
4602;DHT22;2313;48.552;9.370;2022-12-24T05:45:19;10.70;99.90
4602;DHT22;2313;48.552;9.370;2022-12-24T05:47:45;10.60;99.90
4602;DHT22;2313;48.552;9.370;2022-12-24T05:50:11;10.60;99.90
4602;DHT22;2313;48.552;9.370;2022-12-24T05:52:37;10.50;99.90
4602;DHT22;2313;48.552;9.370;2022-12-24T05:55:02;10.60;99.90
4602;DHT22;2313;48.552;9.370;2022-12-24T05:57:28;10.50;99.90
4602;DHT22;2313;48.552;9.370;2022-12-24T05:59:54;10.60;99.90
4602;DHT22;2313;48.552;9.370;2022-12-24T06:02:19;10.40;99.90
4602;DHT22;2313;48.552;9.370;2022-12-24T06:04:45;10.40;99.90
4602;DHT22;2313;48.552;9.370;2022-12-24T06:07:10;10.50;99.90
4602;DHT22;2313;48.552;9.370;2022-12-24T06:09:36;10.40;99.90
4602;DHT22;2313;48.552;9.370;2022-12-24T06:12:02;10.40;99.90
4602;DHT22;2313;48.552;9.370;2022-12-24T06:14:27;10.30;99.90
4602;DHT22;2313;48.552;9.370;2022-12-24T06:16:53;10.40;99.90
4602;DHT22;2313;48.552;9.370;2022-12-24T06:19:18;10.30;99.90
4602;DHT22;2313;48.552;9.370;2022-12-24T06:21:44;10.30;99.90
4602;DHT22;2313;48.552;9.370;2022-12-24T06:24:09;10.30;99.90
4602;DHT22;2313;48.552;9.370;2022-12-24T06:26:35;10.40;99.90
4602;DHT22;2313;48.552;9.370;2022-12-24T06:29:01;10.30;99.90
4602;DHT22;2313;48.552;9.370;2022-12-24T06:31:26;10.20;99.90
4602;DHT22;2313;48.552;9.370;2022-12-24T06:33:52;10.20;99.90
4602;DHT22;2313;48.552;9.370;2022-12-24T06:36:22;10.20;99.90
4602;DHT22;2313;48.552;9.370;2022-12-24T06:38:49;10.20;99.90
4602;DHT22;2313;48.552;9.370;2022-12-24T06:41:16;10.30;99.90
4602;DHT22;2313;48.552;9.370;2022-12-24T06:43:46;10.20;99.90
4602;DHT22;2313;48.552;9.370;2022-12-24T06:46:12;10.20;99.90
4602;DHT22;2313;48.552;9.370;2022-12-24T06:48:38;10.10;99.90
4602;DHT22;2313;48.552;9.370;2022-12-24T06:51:04;10.20;99.90
4602;DHT22;2313;48.552;9.370;2022-12-24T06:53:30;10.20;99.90
4602;DHT22;2313;48.552;9.370;2022-12-24T06:58:27;10.20;99.90
4602;DHT22;2313;48.552;9.370;2022-12-24T07:00:53;10.20;99.90
4602;DHT22;2313;48.552;9.370;2022-12-24T07:03:19;10.30;99.90
4602;DHT22;2313;48.552;9.370;2022-12-24T07:05:44;10.10;99.90
4602;DHT22;2313;48.552;9.370;2022-12-24T07:08:10;10.10;99.90
4602;DHT22;2313;48.552;9.370;2022-12-24T07:10:35;10.00;99.90
4602;DHT22;2313;48.552;9.370;2022-12-24T07:13:01;10.10;99.90
4602;DHT22;2313;48.552;9.370;2022-12-24T07:15:26;10.10;99.90
4602;DHT22;2313;48.552;9.370;2022-12-24T07:17:52;10.10;99.90
4602;DHT22;2313;48.552;9.370;2022-12-24T07:20:17;10.20;99.90
4602;DHT22;2313;48.552;9.370;2022-12-24T07:22:43;10.20;99.90
4602;DHT22;2313;48.552;9.370;2022-12-24T07:25:10;10.10;99.90
4602;DHT22;2313;48.552;9.370;2022-12-24T07:27:36;10.20;99.90
4602;DHT22;2313;48.552;9.370;2022-12-24T07:30:02;10.20;99.90
4602;DHT22;2313;48.552;9.370;2022-12-24T07:32:28;10.20;99.90
4602;DHT22;2313;48.552;9.370;2022-12-24T07:34:54;10.20;99.90
4602;DHT22;2313;48.552;9.370;2022-12-24T07:37:19;10.20;99.90
4602;DHT22;2313;48.552;9.370;2022-12-24T07:39:45;10.20;99.90
4602;DHT22;2313;48.552;9.370;2022-12-24T07:42:10;10.20;99.90
4602;DHT22;2313;48.552;9.370;2022-12-24T07:44:36;10.30;99.90
4602;DHT22;2313;48.552;9.370;2022-12-24T07:47:02;10.30;99.90
4602;DHT22;2313;48.552;9.370;2022-12-24T07:49:27;10.30;99.90
4602;DHT22;2313;48.552;9.370;2022-12-24T07:51:53;10.30;99.90
4602;DHT22;2313;48.552;9.370;2022-12-24T07:54:19;10.20;99.90
4602;DHT22;2313;48.552;9.370;2022-12-24T07:56:44;10.30;99.90
4602;DHT22;2313;48.552;9.370;2022-12-24T07:59:11;10.20;99.90
4602;DHT22;2313;48.552;9.370;2022-12-24T08:01:37;10.20;99.90
4602;DHT22;2313;48.552;9.370;2022-12-24T08:04:03;10.30;99.90
4602;DHT22;2313;48.552;9.370;2022-12-24T08:06:29;10.30;99.90
4602;DHT22;2313;48.552;9.370;2022-12-24T08:08:54;10.30;99.90
4602;DHT22;2313;48.552;9.370;2022-12-24T08:11:20;10.30;99.90
4602;DHT22;2313;48.552;9.370;2022-12-24T08:13:46;10.30;99.90
4602;DHT22;2313;48.552;9.370;2022-12-24T08:16:11;10.30;99.90
4602;DHT22;2313;48.552;9.370;2022-12-24T08:18:37;10.30;99.90
4602;DHT22;2313;48.552;9.370;2022-12-24T08:21:06;10.40;99.90
4602;DHT22;2313;48.552;9.370;2022-12-24T08:23:32;10.40;99.90
4602;DHT22;2313;48.552;9.370;2022-12-24T08:25:57;10.40;99.90
4602;DHT22;2313;48.552;9.370;2022-12-24T08:28:23;10.40;99.90
4602;DHT22;2313;48.552;9.370;2022-12-24T08:30:50;10.40;99.90
4602;DHT22;2313;48.552;9.370;2022-12-24T08:33:16;10.50;99.90
4602;DHT22;2313;48.552;9.370;2022-12-24T08:35:49;10.40;99.90
4602;DHT22;2313;48.552;9.370;2022-12-24T08:38:15;10.50;99.90
4602;DHT22;2313;48.552;9.370;2022-12-24T08:40:41;10.50;99.90
4602;DHT22;2313;48.552;9.370;2022-12-24T08:43:07;10.60;99.90
4602;DHT22;2313;48.552;9.370;2022-12-24T08:45:33;10.60;99.90
4602;DHT22;2313;48.552;9.370;2022-12-24T08:47:59;10.50;99.90
4602;DHT22;2313;48.552;9.370;2022-12-24T08:50:24;10.60;99.90
4602;DHT22;2313;48.552;9.370;2022-12-24T08:52:50;10.60;99.90
4602;DHT22;2313;48.552;9.370;2022-12-24T08:55:16;10.60;99.90
4602;DHT22;2313;48.552;9.370;2022-12-24T08:57:41;10.60;99.90
4602;DHT22;2313;48.552;9.370;2022-12-24T09:00:10;10.60;99.90
4602;DHT22;2313;48.552;9.370;2022-12-24T09:02:36;10.50;99.90
4602;DHT22;2313;48.552;9.370;2022-12-24T09:05:01;10.50;99.90
4602;DHT22;2313;48.552;9.370;2022-12-24T09:07:27;10.60;99.90
4602;DHT22;2313;48.552;9.370;2022-12-24T09:09:52;10.60;99.90
4602;DHT22;2313;48.552;9.370;2022-12-24T09:12:18;10.60;99.90
4602;DHT22;2313;48.552;9.370;2022-12-24T09:14:44;10.70;99.90
4602;DHT22;2313;48.552;9.370;2022-12-24T09:17:09;10.70;99.90
4602;DHT22;2313;48.552;9.370;2022-12-24T09:19:35;11.00;99.90
4602;DHT22;2313;48.552;9.370;2022-12-24T09:22:00;11.00;99.90
4602;DHT22;2313;48.552;9.370;2022-12-24T09:24:26;11.10;99.90
4602;DHT22;2313;48.552;9.370;2022-12-24T09:26:52;11.20;99.90
4602;DHT22;2313;48.552;9.370;2022-12-24T09:29:17;11.30;99.90
4602;DHT22;2313;48.552;9.370;2022-12-24T09:31:43;11.30;99.90
4602;DHT22;2313;48.552;9.370;2022-12-24T09:34:09;11.40;99.90
4602;DHT22;2313;48.552;9.370;2022-12-24T09:36:34;11.40;99.90
4602;DHT22;2313;48.552;9.370;2022-12-24T09:39:00;11.40;99.90
4602;DHT22;2313;48.552;9.370;2022-12-24T09:44:21;11.50;99.90
4602;DHT22;2313;48.552;9.370;2022-12-24T09:46:52;11.40;99.90
4602;DHT22;2313;48.552;9.370;2022-12-24T09:49:30;11.50;99.90
4602;DHT22;2313;48.552;9.370;2022-12-24T09:52:04;11.50;99.90
4602;DHT22;2313;48.552;9.370;2022-12-24T09:54:38;11.50;99.90
4602;DHT22;2313;48.552;9.370;2022-12-24T09:57:11;11.50;99.90
4602;DHT22;2313;48.552;9.370;2022-12-24T09:59:42;11.50;99.90
4602;DHT22;2313;48.552;9.370;2022-12-24T10:02:14;11.50;99.90
4602;DHT22;2313;48.552;9.370;2022-12-24T10:04:42;11.70;99.90
4602;DHT22;2313;48.552;9.370;2022-12-24T10:15:30;13.70;99.90
4602;DHT22;2313;48.552;9.370;2022-12-24T10:26:14;15.20;97.50
4602;DHT22;2313;48.552;9.370;2022-12-24T10:28:55;15.30;97.90
4602;DHT22;2313;48.552;9.370;2022-12-24T10:31:26;15.10;96.10
4602;DHT22;2313;48.552;9.370;2022-12-24T10:33:56;14.80;95.40
4602;DHT22;2313;48.552;9.370;2022-12-24T10:36:27;14.30;97.00
4602;DHT22;2313;48.552;9.370;2022-12-24T10:38:53;14.10;97.70
4602;DHT22;2313;48.552;9.370;2022-12-24T10:41:19;14.10;98.80
4602;DHT22;2313;48.552;9.370;2022-12-24T10:43:46;13.70;98.50
4602;DHT22;2313;48.552;9.370;2022-12-24T10:46:35;13.70;99.40
4602;DHT22;2313;48.552;9.370;2022-12-24T10:49:07;13.60;99.80
4602;DHT22;2313;48.552;9.370;2022-12-24T10:51:42;13.50;99.90
4602;DHT22;2313;48.552;9.370;2022-12-24T10:54:24;13.30;99.80
4602;DHT22;2313;48.552;9.370;2022-12-24T10:56:55;13.10;99.90
4602;DHT22;2313;48.552;9.370;2022-12-24T10:59:42;12.90;99.90
4602;DHT22;2313;48.552;9.370;2022-12-24T11:02:33;12.80;99.90
4602;DHT22;2313;48.552;9.370;2022-12-24T11:05:01;12.80;99.90
4602;DHT22;2313;48.552;9.370;2022-12-24T11:07:29;12.80;99.90
4602;DHT22;2313;48.552;9.370;2022-12-24T11:09:58;12.80;99.90
4602;DHT22;2313;48.552;9.370;2022-12-24T11:12:39;12.70;99.90
4602;DHT22;2313;48.552;9.370;2022-12-24T11:15:23;12.60;99.90
4602;DHT22;2313;48.552;9.370;2022-12-24T11:17:58;12.50;99.90
4602;DHT22;2313;48.552;9.370;2022-12-24T11:20:28;12.40;99.90
4602;DHT22;2313;48.552;9.370;2022-12-24T11:22:55;12.40;99.90
4602;DHT22;2313;48.552;9.370;2022-12-24T11:25:25;12.40;99.90
4602;DHT22;2313;48.552;9.370;2022-12-24T11:27:54;12.10;99.90
4602;DHT22;2313;48.552;9.370;2022-12-24T11:30:27;12.30;99.90
4602;DHT22;2313;48.552;9.370;2022-12-24T11:35:25;12.20;99.90
4602;DHT22;2313;48.552;9.370;2022-12-24T11:40:43;12.40;99.90
4602;DHT22;2313;48.552;9.370;2022-12-24T11:43:19;12.40;99.90
4602;DHT22;2313;48.552;9.370;2022-12-24T11:45:55;12.40;99.90
4602;DHT22;2313;48.552;9.370;2022-12-24T11:48:30;12.50;99.90
4602;DHT22;2313;48.552;9.370;2022-12-24T11:51:00;12.60;99.90
4602;DHT22;2313;48.552;9.370;2022-12-24T11:56:47;12.80;99.90
4602;DHT22;2313;48.552;9.370;2022-12-24T11:59:15;12.90;99.90
4602;DHT22;2313;48.552;9.370;2022-12-24T12:01:56;12.90;99.90
4602;DHT22;2313;48.552;9.370;2022-12-24T12:04:32;12.90;99.90
4602;DHT22;2313;48.552;9.370;2022-12-24T12:07:29;12.90;99.90
4602;DHT22;2313;48.552;9.370;2022-12-24T12:10:14;12.90;99.90
4602;DHT22;2313;48.552;9.370;2022-12-24T12:12:45;12.80;99.90
4602;DHT22;2313;48.552;9.370;2022-12-24T12:15:16;12.80;99.90
4602;DHT22;2313;48.552;9.370;2022-12-24T12:18:05;12.70;99.90
4602;DHT22;2313;48.552;9.370;2022-12-24T12:20:37;12.90;99.90
4602;DHT22;2313;48.552;9.370;2022-12-24T12:23:46;13.00;99.90
4602;DHT22;2313;48.552;9.370;2022-12-24T12:26:26;12.90;99.90
4602;DHT22;2313;48.552;9.370;2022-12-24T12:28:58;12.80;99.90
4602;DHT22;2313;48.552;9.370;2022-12-24T12:31:37;12.80;99.90
4602;DHT22;2313;48.552;9.370;2022-12-24T12:34:30;12.70;99.90
4602;DHT22;2313;48.552;9.370;2022-12-24T12:37:01;12.70;99.90
4602;DHT22;2313;48.552;9.370;2022-12-24T12:39:30;12.80;99.90
4602;DHT22;2313;48.552;9.370;2022-12-24T12:42:38;12.80;99.90
4602;DHT22;2313;48.552;9.370;2022-12-24T12:50:33;12.80;99.90
4602;DHT22;2313;48.552;9.370;2022-12-24T12:53:31;12.80;99.90
4602;DHT22;2313;48.552;9.370;2022-12-24T12:58:46;12.80;99.90
4602;DHT22;2313;48.552;9.370;2022-12-24T13:01:21;12.80;99.90
4602;DHT22;2313;48.552;9.370;2022-12-24T13:10:21;12.70;99.90
4602;DHT22;2313;48.552;9.370;2022-12-24T13:21:03;12.20;99.90
4602;DHT22;2313;48.552;9.370;2022-12-24T13:23:28;12.20;99.90
4602;DHT22;2313;48.552;9.370;2022-12-24T13:25:56;12.20;99.90
4602;DHT22;2313;48.552;9.370;2022-12-24T13:33:50;11.90;99.90
4602;DHT22;2313;48.552;9.370;2022-12-24T13:36:17;11.80;99.90
4602;DHT22;2313;48.552;9.370;2022-12-24T13:38:50;11.90;99.90
4602;DHT22;2313;48.552;9.370;2022-12-24T13:44:14;12.00;99.90
4602;DHT22;2313;48.552;9.370;2022-12-24T13:47:00;12.00;99.90
4602;DHT22;2313;48.552;9.370;2022-12-24T13:49:49;12.00;99.90
4602;DHT22;2313;48.552;9.370;2022-12-24T13:52:24;12.00;99.90
4602;DHT22;2313;48.552;9.370;2022-12-24T14:05:36;11.90;99.90
4602;DHT22;2313;48.552;9.370;2022-12-24T14:11:18;11.90;99.90
4602;DHT22;2313;48.552;9.370;2022-12-24T14:18:37;11.90;99.90
4602;DHT22;2313;48.552;9.370;2022-12-24T14:21:05;11.90;99.90
4602;DHT22;2313;48.552;9.370;2022-12-24T14:23:56;11.90;99.90
4602;DHT22;2313;48.552;9.370;2022-12-24T14:26:35;11.80;99.90
4602;DHT22;2313;48.552;9.370;2022-12-24T14:29:06;11.80;99.90
4602;DHT22;2313;48.552;9.370;2022-12-24T14:31:31;11.80;99.90
4602;DHT22;2313;48.552;9.370;2022-12-24T14:34:11;11.80;99.90
4602;DHT22;2313;48.552;9.370;2022-12-24T14:36:38;11.80;99.90
4602;DHT22;2313;48.552;9.370;2022-12-24T14:39:20;11.70;99.90
4602;DHT22;2313;48.552;9.370;2022-12-24T14:41:51;11.70;99.90
4602;DHT22;2313;48.552;9.370;2022-12-24T14:47:04;11.60;99.90
4602;DHT22;2313;48.552;9.370;2022-12-24T14:52:45;11.50;99.90
4602;DHT22;2313;48.552;9.370;2022-12-24T14:58:31;11.30;99.90
4602;DHT22;2313;48.552;9.370;2022-12-24T15:01:15;11.20;99.90
4602;DHT22;2313;48.552;9.370;2022-12-24T15:03:42;11.10;99.90
4602;DHT22;2313;48.552;9.370;2022-12-24T15:06:10;10.90;99.90
4602;DHT22;2313;48.552;9.370;2022-12-24T15:08:40;10.80;99.90
4602;DHT22;2313;48.552;9.370;2022-12-24T15:11:12;10.70;99.90
4602;DHT22;2313;48.552;9.370;2022-12-24T15:13:44;10.60;99.90
4602;DHT22;2313;48.552;9.370;2022-12-24T15:16:13;10.70;99.90
4602;DHT22;2313;48.552;9.370;2022-12-24T15:18:48;10.60;99.90
4602;DHT22;2313;48.552;9.370;2022-12-24T15:21:20;10.70;99.90
4602;DHT22;2313;48.552;9.370;2022-12-24T15:23:49;10.60;99.90
4602;DHT22;2313;48.552;9.370;2022-12-24T15:26:32;10.50;99.90
4602;DHT22;2313;48.552;9.370;2022-12-24T15:29:01;10.40;99.90
4602;DHT22;2313;48.552;9.370;2022-12-24T15:31:37;10.40;99.90
4602;DHT22;2313;48.552;9.370;2022-12-24T15:34:03;10.30;99.90
4602;DHT22;2313;48.552;9.370;2022-12-24T15:36:36;10.30;99.90
4602;DHT22;2313;48.552;9.370;2022-12-24T15:39:07;10.30;99.90
4602;DHT22;2313;48.552;9.370;2022-12-24T15:41:42;10.10;99.90
4602;DHT22;2313;48.552;9.370;2022-12-24T15:44:34;10.00;99.90
4602;DHT22;2313;48.552;9.370;2022-12-24T15:47:03;9.90;99.90
4602;DHT22;2313;48.552;9.370;2022-12-24T15:49:31;9.90;99.90
4602;DHT22;2313;48.552;9.370;2022-12-24T15:52:12;10.00;99.90
4602;DHT22;2313;48.552;9.370;2022-12-24T15:54:43;9.90;99.90
4602;DHT22;2313;48.552;9.370;2022-12-24T15:57:28;10.00;99.90
4602;DHT22;2313;48.552;9.370;2022-12-24T15:59:56;9.80;99.90
4602;DHT22;2313;48.552;9.370;2022-12-24T16:05:29;9.60;99.90
4602;DHT22;2313;48.552;9.370;2022-12-24T16:08:23;9.40;99.90
4602;DHT22;2313;48.552;9.370;2022-12-24T16:14:30;9.20;99.90
4602;DHT22;2313;48.552;9.370;2022-12-24T16:16:50;9.30;99.90
4602;DHT22;2313;48.552;9.370;2022-12-24T16:19:23;9.50;99.90
4602;DHT22;2313;48.552;9.370;2022-12-24T16:21:54;9.60;99.90
4602;DHT22;2313;48.552;9.370;2022-12-24T16:24:22;9.70;99.90
4602;DHT22;2313;48.552;9.370;2022-12-24T16:26:48;9.80;99.90
4602;DHT22;2313;48.552;9.370;2022-12-24T16:29:15;9.90;99.90
4602;DHT22;2313;48.552;9.370;2022-12-24T16:31:56;9.90;99.90
4602;DHT22;2313;48.552;9.370;2022-12-24T16:34:24;9.90;99.90
4602;DHT22;2313;48.552;9.370;2022-12-24T16:36:50;9.80;99.90
4602;DHT22;2313;48.552;9.370;2022-12-24T16:39:22;9.80;99.90
4602;DHT22;2313;48.552;9.370;2022-12-24T16:41:51;10.00;99.90
4602;DHT22;2313;48.552;9.370;2022-12-24T16:44:36;9.80;99.90
4602;DHT22;2313;48.552;9.370;2022-12-24T16:47:03;9.70;99.90
4602;DHT22;2313;48.552;9.370;2022-12-24T16:49:30;9.70;99.90
4602;DHT22;2313;48.552;9.370;2022-12-24T16:51:55;9.70;99.90
4602;DHT22;2313;48.552;9.370;2022-12-24T16:54:21;9.60;99.90
4602;DHT22;2313;48.552;9.370;2022-12-24T16:56:46;9.60;99.90
4602;DHT22;2313;48.552;9.370;2022-12-24T16:59:19;9.60;99.90
4602;DHT22;2313;48.552;9.370;2022-12-24T17:01:45;9.60;99.90
4602;DHT22;2313;48.552;9.370;2022-12-24T17:04:11;9.70;99.90
4602;DHT22;2313;48.552;9.370;2022-12-24T17:06:37;9.50;99.90
4602;DHT22;2313;48.552;9.370;2022-12-24T17:09:04;9.50;99.90
4602;DHT22;2313;48.552;9.370;2022-12-24T17:11:29;9.50;99.90
4602;DHT22;2313;48.552;9.370;2022-12-24T17:13:55;9.50;99.90
4602;DHT22;2313;48.552;9.370;2022-12-24T17:16:20;9.50;99.90
4602;DHT22;2313;48.552;9.370;2022-12-24T17:18:47;9.60;99.90
4602;DHT22;2313;48.552;9.370;2022-12-24T17:21:13;9.60;99.90
4602;DHT22;2313;48.552;9.370;2022-12-24T17:23:42;9.60;99.90
4602;DHT22;2313;48.552;9.370;2022-12-24T17:26:09;9.50;99.90
4602;DHT22;2313;48.552;9.370;2022-12-24T17:28:35;9.50;99.90
4602;DHT22;2313;48.552;9.370;2022-12-24T17:31:15;9.50;99.90
4602;DHT22;2313;48.552;9.370;2022-12-24T17:33:41;9.50;99.90
4602;DHT22;2313;48.552;9.370;2022-12-24T17:36:07;9.50;99.90
4602;DHT22;2313;48.552;9.370;2022-12-24T17:38:32;9.50;99.90
4602;DHT22;2313;48.552;9.370;2022-12-24T17:41:03;9.50;99.90
4602;DHT22;2313;48.552;9.370;2022-12-24T17:43:29;9.50;99.90
4602;DHT22;2313;48.552;9.370;2022-12-24T17:45:54;9.50;99.90
4602;DHT22;2313;48.552;9.370;2022-12-24T17:48:20;9.40;99.90
4602;DHT22;2313;48.552;9.370;2022-12-24T17:50:46;9.40;99.90
4602;DHT22;2313;48.552;9.370;2022-12-24T17:53:11;9.50;99.90
4602;DHT22;2313;48.552;9.370;2022-12-24T17:55:43;9.50;99.90
4602;DHT22;2313;48.552;9.370;2022-12-24T17:58:10;9.50;99.90
4602;DHT22;2313;48.552;9.370;2022-12-24T18:00:36;9.50;99.90
4602;DHT22;2313;48.552;9.370;2022-12-24T18:03:01;9.50;99.90
4602;DHT22;2313;48.552;9.370;2022-12-24T18:05:27;9.50;99.90
4602;DHT22;2313;48.552;9.370;2022-12-24T18:07:53;9.50;99.90
4602;DHT22;2313;48.552;9.370;2022-12-24T18:10:18;9.50;99.90
4602;DHT22;2313;48.552;9.370;2022-12-24T18:12:44;9.50;99.90
4602;DHT22;2313;48.552;9.370;2022-12-24T18:15:10;9.60;99.90
4602;DHT22;2313;48.552;9.370;2022-12-24T18:17:35;9.50;99.90
4602;DHT22;2313;48.552;9.370;2022-12-24T18:20:01;9.50;99.90
4602;DHT22;2313;48.552;9.370;2022-12-24T18:22:27;9.50;99.90
4602;DHT22;2313;48.552;9.370;2022-12-24T18:24:52;9.50;99.90
4602;DHT22;2313;48.552;9.370;2022-12-24T18:27:18;9.50;99.90